sensor_id;sensor_type;location;lat;lon;timestamp;pressure;altitude;pressure_sealevel;temperature;humidity
8717;BME280;4395;48.554;8.820;2024-02-23T00:00:52;94007.47;;;4.33;78.96
8717;BME280;4395;48.554;8.820;2024-02-23T00:02:54;93997.66;;;4.35;79.85
8717;BME280;4395;48.554;8.820;2024-02-23T00:04:59;94000.22;;;4.35;78.92
8717;BME280;4395;48.554;8.820;2024-02-23T00:07:02;94001.28;;;4.34;77.92
8717;BME280;4395;48.554;8.820;2024-02-23T00:09:06;94018.78;;;4.32;78.16
8717;BME280;4395;48.554;8.820;2024-02-23T00:11:09;94010.03;;;4.33;78.40
8717;BME280;4395;48.554;8.820;2024-02-23T00:13:12;94019.81;;;4.37;79.58
8717;BME280;4395;48.554;8.820;2024-02-23T00:15:15;94033.19;;;4.39;78.89
8717;BME280;4395;48.554;8.820;2024-02-23T00:17:17;94026.75;;;4.41;78.94
8717;BME280;4395;48.554;8.820;2024-02-23T00:19:20;94034.75;;;4.40;78.96
8717;BME280;4395;48.554;8.820;2024-02-23T00:21:24;94045.31;;;4.38;79.11
8717;BME280;4395;48.554;8.820;2024-02-23T00:23:26;94049.72;;;4.32;79.02
8717;BME280;4395;48.554;8.820;2024-02-23T00:25:31;94052.25;;;4.38;79.64
8717;BME280;4395;48.554;8.820;2024-02-23T00:27:34;94055.88;;;4.47;80.33
8717;BME280;4395;48.554;8.820;2024-02-23T00:29:37;94050.72;;;4.47;80.00
8717;BME280;4395;48.554;8.820;2024-02-23T00:31:40;94050.19;;;4.50;79.83
8717;BME280;4395;48.554;8.820;2024-02-23T00:33:43;94051.00;;;4.45;78.84
8717;BME280;4395;48.554;8.820;2024-02-23T00:35:46;94046.59;;;4.46;79.13
8717;BME280;4395;48.554;8.820;2024-02-23T00:37:49;94041.44;;;4.41;79.35
8717;BME280;4395;48.554;8.820;2024-02-23T00:39:52;94036.81;;;4.43;79.29
8717;BME280;4395;48.554;8.820;2024-02-23T00:41:56;94029.84;;;4.43;79.56
8717;BME280;4395;48.554;8.820;2024-02-23T00:43:59;94027.53;;;4.37;78.03
8717;BME280;4395;48.554;8.820;2024-02-23T00:46:02;94045.84;;;4.30;78.37
8717;BME280;4395;48.554;8.820;2024-02-23T00:48:06;94046.59;;;4.25;78.37
8717;BME280;4395;48.554;8.820;2024-02-23T00:50:09;94049.72;;;4.22;78.00
8717;BME280;4395;48.554;8.820;2024-02-23T00:52:14;94045.09;;;4.19;78.34
8717;BME280;4395;48.554;8.820;2024-02-23T00:54:16;94036.31;;;4.20;78.56
8717;BME280;4395;48.554;8.820;2024-02-23T00:56:19;94051.25;;;4.23;78.75
8717;BME280;4395;48.554;8.820;2024-02-23T00:58:28;94029.63;;;4.19;78.29
8717;BME280;4395;48.554;8.820;2024-02-23T01:00:31;94054.09;;;4.22;78.77
8717;BME280;4395;48.554;8.820;2024-02-23T01:02:33;94036.84;;;4.22;78.32
8717;BME280;4395;48.554;8.820;2024-02-23T01:04:36;94055.38;;;4.19;78.17
8717;BME280;4395;48.554;8.820;2024-02-23T01:06:38;94040.44;;;4.16;78.20
8717;BME280;4395;48.554;8.820;2024-02-23T01:08:41;94040.19;;;4.13;77.38
8717;BME280;4395;48.554;8.820;2024-02-23T01:10:44;94032.69;;;4.11;77.90
8717;BME280;4395;48.554;8.820;2024-02-23T01:12:47;94038.91;;;4.10;78.24
8717;BME280;4395;48.554;8.820;2024-02-23T01:14:51;94053.06;;;4.08;78.31
8717;BME280;4395;48.554;8.820;2024-02-23T01:16:54;94052.53;;;4.06;77.89
8717;BME280;4395;48.554;8.820;2024-02-23T01:18:56;94043.03;;;4.06;77.92
8717;BME280;4395;48.554;8.820;2024-02-23T01:20:58;94053.84;;;4.08;77.04
8717;BME280;4395;48.554;8.820;2024-02-23T01:23:01;94045.59;;;4.06;77.32
8717;BME280;4395;48.554;8.820;2024-02-23T01:25:05;94050.75;;;4.06;76.83
8717;BME280;4395;48.554;8.820;2024-02-23T01:27:08;94047.16;;;4.07;77.01
8717;BME280;4395;48.554;8.820;2024-02-23T01:29:11;94053.84;;;4.08;77.46
8717;BME280;4395;48.554;8.820;2024-02-23T01:31:15;94063.09;;;4.14;76.90
8717;BME280;4395;48.554;8.820;2024-02-23T01:33:18;94073.91;;;4.11;77.27
8717;BME280;4395;48.554;8.820;2024-02-23T01:35:21;94076.50;;;4.16;77.66
8717;BME280;4395;48.554;8.820;2024-02-23T01:37:24;94078.56;;;4.14;77.89
8717;BME280;4395;48.554;8.820;2024-02-23T01:39:26;94088.84;;;4.14;78.04
8717;BME280;4395;48.554;8.820;2024-02-23T01:41:31;94071.06;;;4.13;78.54
8717;BME280;4395;48.554;8.820;2024-02-23T01:43:34;94074.44;;;4.18;78.65
8717;BME280;4395;48.554;8.820;2024-02-23T01:45:37;94086.81;;;4.16;78.85
8717;BME280;4395;48.554;8.820;2024-02-23T01:47:41;94073.94;;;4.21;78.65
8717;BME280;4395;48.554;8.820;2024-02-23T01:49:45;94071.34;;;4.21;78.97
8717;BME280;4395;48.554;8.820;2024-02-23T01:51:48;94065.69;;;4.19;79.22
8717;BME280;4395;48.554;8.820;2024-02-23T01:53:51;94073.41;;;4.19;79.24
8717;BME280;4395;48.554;8.820;2024-02-23T01:55:55;94076.50;;;4.21;79.67
8717;BME280;4395;48.554;8.820;2024-02-23T01:57:57;94081.13;;;4.19;79.44
8717;BME280;4395;48.554;8.820;2024-02-23T02:00:02;94081.91;;;4.15;78.37
8717;BME280;4395;48.554;8.820;2024-02-23T02:02:13;94080.13;;;4.10;79.07
8717;BME280;4395;48.554;8.820;2024-02-23T02:04:18;94081.91;;;4.10;79.25
8717;BME280;4395;48.554;8.820;2024-02-23T02:06:20;94086.00;;;4.11;79.24
8717;BME280;4395;48.554;8.820;2024-02-23T02:08:22;94091.94;;;4.11;79.76
8717;BME280;4395;48.554;8.820;2024-02-23T02:10:25;94094.25;;;4.13;79.11
8717;BME280;4395;48.554;8.820;2024-02-23T02:12:29;94099.66;;;4.11;78.70
8717;BME280;4395;48.554;8.820;2024-02-23T02:14:31;94091.94;;;4.06;79.04
8717;BME280;4395;48.554;8.820;2024-02-23T02:16:35;94092.97;;;4.05;79.30
8717;BME280;4395;48.554;8.820;2024-02-23T02:18:37;94098.13;;;4.05;78.60
8717;BME280;4395;48.554;8.820;2024-02-23T02:20:50;94097.63;;;3.98;78.49
8717;BME280;4395;48.554;8.820;2024-02-23T02:22:54;94101.22;;;3.97;79.19
8717;BME280;4395;48.554;8.820;2024-02-23T02:24:57;94098.66;;;3.97;78.94
8717;BME280;4395;48.554;8.820;2024-02-23T02:27:00;94098.66;;;3.97;78.17
8717;BME280;4395;48.554;8.820;2024-02-23T02:29:03;94101.22;;;3.97;78.40
8717;BME280;4395;48.554;8.820;2024-02-23T02:31:06;94091.94;;;3.96;77.53
8717;BME280;4395;48.554;8.820;2024-02-23T02:33:09;94090.41;;;3.95;76.78
8717;BME280;4395;48.554;8.820;2024-02-23T02:35:11;94088.06;;;3.93;76.17
8717;BME280;4395;48.554;8.820;2024-02-23T02:37:16;94082.66;;;3.90;75.65
8717;BME280;4395;48.554;8.820;2024-02-23T02:39:19;94074.41;;;3.88;76.72
8717;BME280;4395;48.554;8.820;2024-02-23T02:41:23;94074.16;;;3.89;76.81
8717;BME280;4395;48.554;8.820;2024-02-23T02:43:27;94082.66;;;3.85;76.45
8717;BME280;4395;48.554;8.820;2024-02-23T02:45:29;94085.47;;;3.88;76.29
8717;BME280;4395;48.554;8.820;2024-02-23T02:47:32;94082.91;;;3.83;76.42
8717;BME280;4395;48.554;8.820;2024-02-23T02:49:35;94078.03;;;3.82;76.47
8717;BME280;4395;48.554;8.820;2024-02-23T02:51:38;94069.53;;;3.81;76.39
8717;BME280;4395;48.554;8.820;2024-02-23T02:53:42;94083.66;;;3.79;76.55
8717;BME280;4395;48.554;8.820;2024-02-23T02:55:45;94086.75;;;3.81;76.99
8717;BME280;4395;48.554;8.820;2024-02-23T02:57:48;94074.66;;;3.76;76.48
8717;BME280;4395;48.554;8.820;2024-02-23T02:59:49;94061.53;;;3.73;75.86
8717;BME280;4395;48.554;8.820;2024-02-23T03:01:52;94062.53;;;3.67;74.92
8717;BME280;4395;48.554;8.820;2024-02-23T03:03:55;94071.03;;;3.62;75.09
8717;BME280;4395;48.554;8.820;2024-02-23T03:05:58;94068.72;;;3.60;73.73
8717;BME280;4395;48.554;8.820;2024-02-23T03:08:01;94078.25;;;3.60;72.92
8717;BME280;4395;48.554;8.820;2024-02-23T03:10:06;94057.66;;;3.60;73.85
8717;BME280;4395;48.554;8.820;2024-02-23T03:12:10;94057.13;;;3.58;73.46
8717;BME280;4395;48.554;8.820;2024-02-23T03:14:13;94059.44;;;3.54;73.03
8717;BME280;4395;48.554;8.820;2024-02-23T03:16:16;94063.03;;;3.48;73.36
8717;BME280;4395;48.554;8.820;2024-02-23T03:18:19;94064.06;;;3.47;73.24
8717;BME280;4395;48.554;8.820;2024-02-23T03:20:22;94072.53;;;3.43;72.37
8717;BME280;4395;48.554;8.820;2024-02-23T03:22:25;94059.38;;;3.39;72.65
8717;BME280;4395;48.554;8.820;2024-02-23T03:24:28;94056.31;;;3.37;72.64
8717;BME280;4395;48.554;8.820;2024-02-23T03:26:32;94059.38;;;3.39;72.77
8717;BME280;4395;48.554;8.820;2024-02-23T03:28:35;94054.25;;;3.34;72.86
8717;BME280;4395;48.554;8.820;2024-02-23T03:30:38;94049.09;;;3.34;72.87
8717;BME280;4395;48.554;8.820;2024-02-23T03:32:41;94053.47;;;3.34;72.96
8717;BME280;4395;48.554;8.820;2024-02-23T03:34:44;94065.56;;;3.33;72.94
8717;BME280;4395;48.554;8.820;2024-02-23T03:36:47;94065.03;;;3.31;73.73
8717;BME280;4395;48.554;8.820;2024-02-23T03:38:49;94057.84;;;3.33;73.36
8717;BME280;4395;48.554;8.820;2024-02-23T03:40:51;94059.38;;;3.34;73.07
8717;BME280;4395;48.554;8.820;2024-02-23T03:42:56;94077.91;;;3.36;73.11
8717;BME280;4395;48.554;8.820;2024-02-23T03:45:00;94086.66;;;3.35;73.94
8717;BME280;4395;48.554;8.820;2024-02-23T03:47:02;94084.63;;;3.37;74.25
8717;BME280;4395;48.554;8.820;2024-02-23T03:49:05;94097.47;;;3.42;74.44
8717;BME280;4395;48.554;8.820;2024-02-23T03:51:08;94102.91;;;3.46;74.58
8717;BME280;4395;48.554;8.820;2024-02-23T03:53:11;94090.81;;;3.46;74.31
8717;BME280;4395;48.554;8.820;2024-02-23T03:55:14;94090.31;;;3.49;74.64
8717;BME280;4395;48.554;8.820;2024-02-23T03:57:17;94079.00;;;3.55;75.06
8717;BME280;4395;48.554;8.820;2024-02-23T03:59:21;94075.66;;;3.60;75.17
8717;BME280;4395;48.554;8.820;2024-02-23T04:01:24;94078.00;;;3.61;74.92
8717;BME280;4395;48.554;8.820;2024-02-23T04:03:27;94083.63;;;3.63;75.24
8717;BME280;4395;48.554;8.820;2024-02-23T04:05:29;94083.63;;;3.63;75.31
8717;BME280;4395;48.554;8.820;2024-02-23T04:07:32;94073.34;;;3.63;75.75
8717;BME280;4395;48.554;8.820;2024-02-23T04:09:34;94079.53;;;3.68;75.58
8717;BME280;4395;48.554;8.820;2024-02-23T04:11:37;94085.47;;;3.68;75.47
8717;BME280;4395;48.554;8.820;2024-02-23T04:13:40;94071.28;;;3.66;75.66
8717;BME280;4395;48.554;8.820;2024-02-23T04:15:44;94082.09;;;3.68;75.76
8717;BME280;4395;48.554;8.820;2024-02-23T04:17:46;94075.66;;;3.65;75.59
8717;BME280;4395;48.554;8.820;2024-02-23T04:19:49;94080.28;;;3.63;75.56
8717;BME280;4395;48.554;8.820;2024-02-23T04:21:52;94073.09;;;3.60;75.66
8717;BME280;4395;48.554;8.820;2024-02-23T04:23:54;94070.78;;;3.58;75.70
8717;BME280;4395;48.554;8.820;2024-02-23T04:25:58;94062.53;;;3.56;76.01
8717;BME280;4395;48.554;8.820;2024-02-23T04:28:01;94060.47;;;3.58;76.15
8717;BME280;4395;48.554;8.820;2024-02-23T04:30:04;94058.69;;;3.59;76.23
8717;BME280;4395;48.554;8.820;2024-02-23T04:32:09;94062.03;;;3.59;76.10
8717;BME280;4395;48.554;8.820;2024-02-23T04:34:11;94068.44;;;3.57;76.25
8717;BME280;4395;48.554;8.820;2024-02-23T04:36:13;94064.81;;;3.53;76.34
8717;BME280;4395;48.554;8.820;2024-02-23T04:38:17;94065.06;;;3.51;76.07
8717;BME280;4395;48.554;8.820;2024-02-23T04:40:20;94059.69;;;3.48;76.29
8717;BME280;4395;48.554;8.820;2024-02-23T04:42:23;94058.91;;;3.47;76.27
8717;BME280;4395;48.554;8.820;2024-02-23T04:44:25;94057.09;;;3.43;76.24
8717;BME280;4395;48.554;8.820;2024-02-23T04:46:30;94054.75;;;3.41;76.26
8717;BME280;4395;48.554;8.820;2024-02-23T04:48:34;94046.28;;;3.41;76.33
8717;BME280;4395;48.554;8.820;2024-02-23T04:50:37;94043.47;;;3.37;76.20
8717;BME280;4395;48.554;8.820;2024-02-23T04:52:40;94036.75;;;3.36;76.53
8717;BME280;4395;48.554;8.820;2024-02-23T04:54:43;94025.69;;;3.36;76.46
8717;BME280;4395;48.554;8.820;2024-02-23T04:56:46;94029.03;;;3.31;76.72
8717;BME280;4395;48.554;8.820;2024-02-23T04:58:50;94035.72;;;3.32;76.97
8717;BME280;4395;48.554;8.820;2024-02-23T05:00:52;94030.28;;;3.29;77.17
8717;BME280;4395;48.554;8.820;2024-02-23T05:02:55;94022.06;;;3.26;77.12
8717;BME280;4395;48.554;8.820;2024-02-23T05:05:00;94024.91;;;3.25;77.52
8717;BME280;4395;48.554;8.820;2024-02-23T05:07:02;94017.69;;;3.27;77.40
8717;BME280;4395;48.554;8.820;2024-02-23T05:09:05;94029.00;;;3.26;77.40
8717;BME280;4395;48.554;8.820;2024-02-23T05:11:10;94039.81;;;3.28;77.51
8717;BME280;4395;48.554;8.820;2024-02-23T05:13:13;94042.13;;;3.30;77.49
8717;BME280;4395;48.554;8.820;2024-02-23T05:15:16;94038.25;;;3.27;77.49
8717;BME280;4395;48.554;8.820;2024-02-23T05:17:19;94039.28;;;3.26;77.63
8717;BME280;4395;48.554;8.820;2024-02-23T05:19:22;94037.47;;;3.26;77.39
8717;BME280;4395;48.554;8.820;2024-02-23T05:21:25;94038.25;;;3.27;76.67
8717;BME280;4395;48.554;8.820;2024-02-23T05:23:28;94030.03;;;3.25;76.69
8717;BME280;4395;48.554;8.820;2024-02-23T05:25:30;94037.22;;;3.23;76.87
8717;BME280;4395;48.554;8.820;2024-02-23T05:27:33;94041.84;;;3.26;76.80
8717;BME280;4395;48.554;8.820;2024-02-23T05:29:35;94045.97;;;3.27;77.23
8717;BME280;4395;48.554;8.820;2024-02-23T05:31:46;94045.72;;;3.29;77.29
8717;BME280;4395;48.554;8.820;2024-02-23T05:33:49;94057.56;;;3.30;77.29
8717;BME280;4395;48.554;8.820;2024-02-23T05:35:52;94060.91;;;3.30;77.48
8717;BME280;4395;48.554;8.820;2024-02-23T05:37:56;94055.75;;;3.25;77.45
8717;BME280;4395;48.554;8.820;2024-02-23T05:40:00;94071.19;;;3.25;77.46
8717;BME280;4395;48.554;8.820;2024-02-23T05:42:06;94071.19;;;3.25;77.72
8717;BME280;4395;48.554;8.820;2024-02-23T05:44:08;94072.72;;;3.26;77.66
8717;BME280;4395;48.554;8.820;2024-02-23T05:46:10;94073.25;;;3.23;77.80
8717;BME280;4395;48.554;8.820;2024-02-23T05:48:14;94076.34;;;3.25;77.91
8717;BME280;4395;48.554;8.820;2024-02-23T05:50:16;94081.97;;;3.27;77.89
8717;BME280;4395;48.554;8.820;2024-02-23T05:52:19;94074.53;;;3.25;77.70
8717;BME280;4395;48.554;8.820;2024-02-23T05:54:23;94085.56;;;3.26;77.81
8717;BME280;4395;48.554;8.820;2024-02-23T05:56:26;94088.41;;;3.24;77.78
8717;BME280;4395;48.554;8.820;2024-02-23T05:58:29;94078.38;;;3.23;77.97
8717;BME280;4395;48.554;8.820;2024-02-23T06:00:32;94080.97;;;3.23;78.20
8717;BME280;4395;48.554;8.820;2024-02-23T06:02:35;94088.66;;;3.23;78.17
8717;BME280;4395;48.554;8.820;2024-02-23T06:04:37;94079.16;;;3.23;78.32
8717;BME280;4395;48.554;8.820;2024-02-23T06:06:41;94086.34;;;3.21;77.85
8717;BME280;4395;48.554;8.820;2024-02-23T06:08:45;94090.72;;;3.21;78.13
8717;BME280;4395;48.554;8.820;2024-02-23T06:10:49;94089.94;;;3.20;78.13
8717;BME280;4395;48.554;8.820;2024-02-23T06:12:52;94096.88;;;3.20;77.89
8717;BME280;4395;48.554;8.820;2024-02-23T06:14:57;94089.66;;;3.17;77.73
8717;BME280;4395;48.554;8.820;2024-02-23T06:17:00;94102.00;;;3.15;77.83
8717;BME280;4395;48.554;8.820;2024-02-23T06:19:02;94104.06;;;3.13;77.36
8717;BME280;4395;48.554;8.820;2024-02-23T06:21:11;94107.66;;;3.12;77.32
8717;BME280;4395;48.554;8.820;2024-02-23T06:23:15;94110.75;;;3.14;77.42
8717;BME280;4395;48.554;8.820;2024-02-23T06:25:20;94107.66;;;3.12;77.65
8717;BME280;4395;48.554;8.820;2024-02-23T06:27:24;94102.50;;;3.12;77.51
8717;BME280;4395;48.554;8.820;2024-02-23T06:29:29;94098.91;;;3.13;77.46
8717;BME280;4395;48.554;8.820;2024-02-23T06:31:32;94104.84;;;3.13;77.87
8717;BME280;4395;48.554;8.820;2024-02-23T06:33:36;94109.22;;;3.13;77.63
8717;BME280;4395;48.554;8.820;2024-02-23T06:35:39;94098.41;;;3.11;77.90
8717;BME280;4395;48.554;8.820;2024-02-23T06:37:42;94106.59;;;3.08;78.19
8717;BME280;4395;48.554;8.820;2024-02-23T06:39:45;94105.81;;;3.07;78.29
8717;BME280;4395;48.554;8.820;2024-02-23T06:41:53;94108.41;;;3.07;78.40
8717;BME280;4395;48.554;8.820;2024-02-23T06:43:57;94108.94;;;3.09;78.23
8717;BME280;4395;48.554;8.820;2024-02-23T06:46:05;94097.88;;;3.09;78.47
8717;BME280;4395;48.554;8.820;2024-02-23T06:48:08;94103.53;;;3.11;78.15
8717;BME280;4395;48.554;8.820;2024-02-23T06:50:11;94097.09;;;3.08;78.47
8717;BME280;4395;48.554;8.820;2024-02-23T06:52:14;94096.06;;;3.09;78.69
8717;BME280;4395;48.554;8.820;2024-02-23T06:54:16;94100.97;;;3.11;78.67
8717;BME280;4395;48.554;8.820;2024-02-23T06:56:19;94104.31;;;3.11;78.39
8717;BME280;4395;48.554;8.820;2024-02-23T06:58:22;94109.69;;;3.10;78.31
8717;BME280;4395;48.554;8.820;2024-02-23T07:00:26;94111.47;;;3.04;78.40
8717;BME280;4395;48.554;8.820;2024-02-23T07:02:30;94117.38;;;3.05;78.23
8717;BME280;4395;48.554;8.820;2024-02-23T07:04:36;94116.88;;;3.08;78.41
8717;BME280;4395;48.554;8.820;2024-02-23T07:06:37;94111.00;;;3.12;78.13
8717;BME280;4395;48.554;8.820;2024-02-23T07:08:40;94120.00;;;3.15;77.98
8717;BME280;4395;48.554;8.820;2024-02-23T07:10:42;94113.81;;;3.16;77.99
8717;BME280;4395;48.554;8.820;2024-02-23T07:12:45;94112.81;;;3.17;77.56
8717;BME280;4395;48.554;8.820;2024-02-23T07:14:47;94118.47;;;3.19;77.45
8717;BME280;4395;48.554;8.820;2024-02-23T07:16:52;94123.13;;;3.22;76.94
8717;BME280;4395;48.554;8.820;2024-02-23T07:18:54;94122.84;;;3.18;76.53
8717;BME280;4395;48.554;8.820;2024-02-23T07:20:56;94120.03;;;3.20;76.96
8717;BME280;4395;48.554;8.820;2024-02-23T07:22:59;94123.13;;;3.22;77.01
8717;BME280;4395;48.554;8.820;2024-02-23T07:25:01;94127.78;;;3.25;76.82
8717;BME280;4395;48.554;8.820;2024-02-23T07:27:05;94132.41;;;3.28;76.47
8717;BME280;4395;48.554;8.820;2024-02-23T07:29:08;94131.38;;;3.29;76.81
8717;BME280;4395;48.554;8.820;2024-02-23T07:31:10;94128.81;;;3.29;76.12
8717;BME280;4395;48.554;8.820;2024-02-23T07:33:14;94124.44;;;3.24;75.87
8717;BME280;4395;48.554;8.820;2024-02-23T07:35:18;94125.69;;;3.27;75.73
8717;BME280;4395;48.554;8.820;2024-02-23T07:37:21;94127.25;;;3.28;76.25
8717;BME280;4395;48.554;8.820;2024-02-23T07:39:24;94122.09;;;3.28;75.16
8717;BME280;4395;48.554;8.820;2024-02-23T07:41:26;94124.16;;;3.26;74.72
8717;BME280;4395;48.554;8.820;2024-02-23T07:43:29;94119.53;;;3.23;74.56
8717;BME280;4395;48.554;8.820;2024-02-23T07:45:32;94118.47;;;3.19;74.72
8717;BME280;4395;48.554;8.820;2024-02-23T07:47:36;94115.38;;;3.17;74.87
8717;BME280;4395;48.554;8.820;2024-02-23T07:49:41;94117.16;;;3.16;74.74
8717;BME280;4395;48.554;8.820;2024-02-23T07:51:43;94129.25;;;3.16;74.97
8717;BME280;4395;48.554;8.820;2024-02-23T07:53:45;94128.22;;;3.12;74.69
8717;BME280;4395;48.554;8.820;2024-02-23T07:55:48;94126.91;;;3.09;74.38
8717;BME280;4395;48.554;8.820;2024-02-23T07:57:51;94119.97;;;3.10;74.79
8717;BME280;4395;48.554;8.820;2024-02-23T07:59:58;94121.00;;;3.09;75.02
8717;BME280;4395;48.554;8.820;2024-02-23T08:02:01;94126.69;;;3.11;74.43
8717;BME280;4395;48.554;8.820;2024-02-23T08:04:04;94123.81;;;3.07;74.26
8717;BME280;4395;48.554;8.820;2024-02-23T08:06:08;94120.97;;;3.04;74.84
8717;BME280;4395;48.554;8.820;2024-02-23T08:08:12;94126.63;;;3.01;74.99
8717;BME280;4395;48.554;8.820;2024-02-23T08:10:15;94120.19;;;2.98;74.97
8717;BME280;4395;48.554;8.820;2024-02-23T08:12:18;94118.38;;;2.99;74.96
8717;BME280;4395;48.554;8.820;2024-02-23T08:14:21;94125.06;;;3.00;75.10
8717;BME280;4395;48.554;8.820;2024-02-23T08:16:23;94118.91;;;3.01;75.49
8717;BME280;4395;48.554;8.820;2024-02-23T08:18:26;94124.78;;;2.96;74.32
8717;BME280;4395;48.554;8.820;2024-02-23T08:20:29;94120.91;;;2.94;74.82
8717;BME280;4395;48.554;8.820;2024-02-23T08:22:33;94126.06;;;2.94;74.74
8717;BME280;4395;48.554;8.820;2024-02-23T08:24:35;94123.25;;;2.95;74.45
8717;BME280;4395;48.554;8.820;2024-02-23T08:26:38;94125.03;;;2.95;73.94
8717;BME280;4395;48.554;8.820;2024-02-23T08:28:41;94121.16;;;2.87;73.53
8717;BME280;4395;48.554;8.820;2024-02-23T08:30:44;94115.72;;;2.83;74.28
8717;BME280;4395;48.554;8.820;2024-02-23T08:32:47;94113.19;;;2.88;74.69
8717;BME280;4395;48.554;8.820;2024-02-23T08:34:48;94111.13;;;2.90;74.11
8717;BME280;4395;48.554;8.820;2024-02-23T08:36:51;94112.19;;;2.95;73.55
8717;BME280;4395;48.554;8.820;2024-02-23T08:38:56;94121.72;;;2.99;73.65
8717;BME280;4395;48.554;8.820;2024-02-23T08:40:58;94112.75;;;3.02;73.40
8717;BME280;4395;48.554;8.820;2024-02-23T08:43:02;94117.91;;;3.02;73.61
8717;BME280;4395;48.554;8.820;2024-02-23T08:45:06;94108.16;;;3.09;73.49
8717;BME280;4395;48.554;8.820;2024-02-23T08:47:09;94119.97;;;3.10;73.35
8717;BME280;4395;48.554;8.820;2024-02-23T08:49:11;94108.19;;;3.14;73.51
8717;BME280;4395;48.554;8.820;2024-02-23T08:51:14;94114.88;;;3.20;73.36
8717;BME280;4395;48.554;8.820;2024-02-23T08:53:17;94121.09;;;3.29;73.69
8717;BME280;4395;48.554;8.820;2024-02-23T08:55:20;94122.91;;;3.39;73.96
8717;BME280;4395;48.554;8.820;2024-02-23T08:57:23;94119.09;;;3.46;73.59
8717;BME280;4395;48.554;8.820;2024-02-23T08:59:25;94123.78;;;3.59;73.64
8717;BME280;4395;48.554;8.820;2024-02-23T09:01:28;94122.78;;;3.76;73.12
8717;BME280;4395;48.554;8.820;2024-02-23T09:03:31;94128.75;;;3.86;72.68
8717;BME280;4395;48.554;8.820;2024-02-23T09:05:34;94120.28;;;3.96;72.63
8717;BME280;4395;48.554;8.820;2024-02-23T09:07:37;94123.88;;;4.05;72.63
8717;BME280;4395;48.554;8.820;2024-02-23T09:09:39;94118.72;;;4.15;72.31
8717;BME280;4395;48.554;8.820;2024-02-23T09:11:43;94126.72;;;4.29;72.44
8717;BME280;4395;48.554;8.820;2024-02-23T09:13:46;94124.16;;;4.44;72.51
8717;BME280;4395;48.554;8.820;2024-02-23T09:15:49;94121.31;;;4.56;71.83
8717;BME280;4395;48.554;8.820;2024-02-23T09:17:51;94129.06;;;4.51;71.38
8717;BME280;4395;48.554;8.820;2024-02-23T09:19:54;94125.47;;;4.47;70.66
8717;BME280;4395;48.554;8.820;2024-02-23T09:21:57;94132.16;;;4.43;70.79
8717;BME280;4395;48.554;8.820;2024-02-23T09:24:01;94135.25;;;4.45;71.18
8717;BME280;4395;48.554;8.820;2024-02-23T09:26:08;94128.78;;;4.47;71.26
8717;BME280;4395;48.554;8.820;2024-02-23T09:28:13;94134.72;;;4.48;71.61
8717;BME280;4395;48.554;8.820;2024-02-23T09:30:16;94130.59;;;4.52;71.65
8717;BME280;4395;48.554;8.820;2024-02-23T09:32:19;94136.00;;;4.65;71.93
8717;BME280;4395;48.554;8.820;2024-02-23T09:34:21;94132.38;;;4.77;71.85
8717;BME280;4395;48.554;8.820;2024-02-23T09:36:24;94134.44;;;4.85;71.84
8717;BME280;4395;48.554;8.820;2024-02-23T09:38:26;94136.50;;;4.93;71.79
8717;BME280;4395;48.554;8.820;2024-02-23T09:40:29;94133.13;;;4.97;71.40
8717;BME280;4395;48.554;8.820;2024-02-23T09:42:33;94133.59;;;5.15;71.84
8717;BME280;4395;48.554;8.820;2024-02-23T09:44:39;94141.31;;;5.20;70.18
8717;BME280;4395;48.554;8.820;2024-02-23T09:46:44;94132.53;;;5.21;69.73
8717;BME280;4395;48.554;8.820;2024-02-23T09:48:48;94136.38;;;5.33;70.16
8717;BME280;4395;48.554;8.820;2024-02-23T09:50:52;94130.44;;;5.38;69.76
8717;BME280;4395;48.554;8.820;2024-02-23T09:52:58;94141.78;;;5.37;68.29
8717;BME280;4395;48.554;8.820;2024-02-23T09:55:01;94137.91;;;5.39;68.12
8717;BME280;4395;48.554;8.820;2024-02-23T09:57:08;94139.16;;;5.47;67.46
8717;BME280;4395;48.554;8.820;2024-02-23T09:59:12;94142.28;;;5.44;67.60
8717;BME280;4395;48.554;8.820;2024-02-23T10:01:21;94144.31;;;5.52;68.23
8717;BME280;4395;48.554;8.820;2024-02-23T10:03:28;94145.91;;;5.43;65.85
8717;BME280;4395;48.554;8.820;2024-02-23T10:05:32;94140.72;;;5.48;66.58
8717;BME280;4395;48.554;8.820;2024-02-23T10:07:39;94153.41;;;5.39;65.63
8717;BME280;4395;48.554;8.820;2024-02-23T10:09:42;94153.16;;;5.36;65.74
8717;BME280;4395;48.554;8.820;2024-02-23T10:11:45;94149.06;;;5.25;65.01
8717;BME280;4395;48.554;8.820;2024-02-23T10:13:54;94153.44;;;5.24;66.08
8717;BME280;4395;48.554;8.820;2024-02-23T10:15:56;94156.28;;;5.23;66.56
8717;BME280;4395;48.554;8.820;2024-02-23T10:18:17;94159.38;;;5.20;66.36
8717;BME280;4395;48.554;8.820;2024-02-23T10:20:20;94160.44;;;5.19;65.84
8717;BME280;4395;48.554;8.820;2024-02-23T10:22:22;94163.50;;;5.21;65.75
8717;BME280;4395;48.554;8.820;2024-02-23T10:24:26;94164.03;;;5.23;65.24
8717;BME280;4395;48.554;8.820;2024-02-23T10:26:29;94159.91;;;5.22;65.35
8717;BME280;4395;48.554;8.820;2024-02-23T10:28:32;94163.00;;;5.24;66.00
8717;BME280;4395;48.554;8.820;2024-02-23T10:30:37;94165.31;;;5.25;65.83
8717;BME280;4395;48.554;8.820;2024-02-23T10:32:41;94163.00;;;5.29;65.34
8717;BME280;4395;48.554;8.820;2024-02-23T10:34:47;94158.56;;;5.39;66.21
8717;BME280;4395;48.554;8.820;2024-02-23T10:36:52;94140.22;;;5.46;65.44
8717;BME280;4395;48.554;8.820;2024-02-23T10:38:56;94147.69;;;5.48;64.65
8717;BME280;4395;48.554;8.820;2024-02-23T10:41:05;94160.59;;;5.53;65.03
8717;BME280;4395;48.554;8.820;2024-02-23T10:43:12;94161.38;;;5.53;64.68
8717;BME280;4395;48.554;8.820;2024-02-23T10:45:15;94152.03;;;5.57;64.58
8717;BME280;4395;48.554;8.820;2024-02-23T10:47:20;94151.50;;;5.60;64.96
8717;BME280;4395;48.554;8.820;2024-02-23T10:49:24;94157.41;;;5.71;65.29
8717;BME280;4395;48.554;8.820;2024-02-23T10:51:30;94160.19;;;5.90;65.44
8717;BME280;4395;48.554;8.820;2024-02-23T10:53:34;94160.63;;;6.07;64.75
8717;BME280;4395;48.554;8.820;2024-02-23T10:55:39;94161.63;;;6.11;63.78
8717;BME280;4395;48.554;8.820;2024-02-23T10:57:43;94147.16;;;6.15;63.25
8717;BME280;4395;48.554;8.820;2024-02-23T10:59:46;94146.59;;;6.18;63.31
8717;BME280;4395;48.554;8.820;2024-02-23T11:01:51;94144.28;;;6.17;63.28
8717;BME280;4395;48.554;8.820;2024-02-23T11:03:54;94138.88;;;6.13;63.16
8717;BME280;4395;48.554;8.820;2024-02-23T11:05:59;94138.13;;;6.12;63.32
8717;BME280;4395;48.554;8.820;2024-02-23T11:08:05;94135.28;;;6.14;63.88
8717;BME280;4395;48.554;8.820;2024-02-23T11:10:13;94132.13;;;6.17;63.74
8717;BME280;4395;48.554;8.820;2024-02-23T11:12:22;94132.09;;;6.22;63.78
8717;BME280;4395;48.554;8.820;2024-02-23T11:14:30;94135.19;;;6.24;63.23
8717;BME280;4395;48.554;8.820;2024-02-23T11:16:38;94132.13;;;6.17;62.10
8717;BME280;4395;48.554;8.820;2024-02-23T11:18:41;94131.66;;;6.15;62.87
8717;BME280;4395;48.554;8.820;2024-02-23T11:20:44;94131.09;;;6.18;62.85